sensor_id;sensor_type;location;lat;lon;timestamp;temperature;humidity
34927;DHT22;21132;48.308;14.274;2022-07-09T00:00:38;19.50;51.20
34927;DHT22;21132;48.308;14.274;2022-07-09T00:03:04;19.50;51.10
34927;DHT22;21132;48.308;14.274;2022-07-09T00:05:30;19.50;51.00
34927;DHT22;21132;48.308;14.274;2022-07-09T00:07:55;19.50;51.00
34927;DHT22;21132;48.308;14.274;2022-07-09T00:10:21;19.50;51.30
34927;DHT22;21132;48.308;14.274;2022-07-09T00:12:47;19.50;50.80
34927;DHT22;21132;48.308;14.274;2022-07-09T00:15:13;19.50;50.70
34927;DHT22;21132;48.308;14.274;2022-07-09T00:17:39;19.50;50.60
34927;DHT22;21132;48.308;14.274;2022-07-09T00:20:05;19.50;50.50
34927;DHT22;21132;48.308;14.274;2022-07-09T00:22:32;19.50;50.50
34927;DHT22;21132;48.308;14.274;2022-07-09T00:24:58;19.50;50.50
34927;DHT22;21132;48.308;14.274;2022-07-09T00:27:24;19.50;50.30
34927;DHT22;21132;48.308;14.274;2022-07-09T00:29:50;19.50;51.00
34927;DHT22;21132;48.308;14.274;2022-07-09T00:32:16;19.50;50.30
34927;DHT22;21132;48.308;14.274;2022-07-09T00:34:42;19.50;50.40
34927;DHT22;21132;48.308;14.274;2022-07-09T00:37:08;19.50;50.50
34927;DHT22;21132;48.308;14.274;2022-07-09T00:39:34;19.50;50.10
34927;DHT22;21132;48.308;14.274;2022-07-09T00:42:10;19.50;50.10
34927;DHT22;21132;48.308;14.274;2022-07-09T00:44:36;19.50;50.00
34927;DHT22;21132;48.308;14.274;2022-07-09T00:47:07;19.50;49.90
34927;DHT22;21132;48.308;14.274;2022-07-09T00:49:37;19.50;50.00
34927;DHT22;21132;48.308;14.274;2022-07-09T00:52:05;19.50;49.90
34927;DHT22;21132;48.308;14.274;2022-07-09T00:54:31;19.50;50.10
34927;DHT22;21132;48.308;14.274;2022-07-09T00:56:58;19.50;50.20
34927;DHT22;21132;48.308;14.274;2022-07-09T00:59:24;19.50;50.40
34927;DHT22;21132;48.308;14.274;2022-07-09T01:01:50;19.50;50.20
34927;DHT22;21132;48.308;14.274;2022-07-09T01:04:17;19.50;50.10
34927;DHT22;21132;48.308;14.274;2022-07-09T01:06:43;19.50;50.00
34927;DHT22;21132;48.308;14.274;2022-07-09T01:09:09;19.50;50.00
34927;DHT22;21132;48.308;14.274;2022-07-09T01:11:36;19.40;49.80
34927;DHT22;21132;48.308;14.274;2022-07-09T01:14:02;19.40;49.80
34927;DHT22;21132;48.308;14.274;2022-07-09T01:16:34;19.40;50.00
34927;DHT22;21132;48.308;14.274;2022-07-09T01:19:01;19.40;50.20
34927;DHT22;21132;48.308;14.274;2022-07-09T01:21:27;19.40;50.20
34927;DHT22;21132;48.308;14.274;2022-07-09T01:23:53;19.40;50.50
34927;DHT22;21132;48.308;14.274;2022-07-09T01:26:19;19.40;50.50
34927;DHT22;21132;48.308;14.274;2022-07-09T01:28:47;19.40;50.40
34927;DHT22;21132;48.308;14.274;2022-07-09T01:31:14;19.40;50.50
34927;DHT22;21132;48.308;14.274;2022-07-09T01:33:40;19.40;50.50
34927;DHT22;21132;48.308;14.274;2022-07-09T01:36:09;19.40;50.60
34927;DHT22;21132;48.308;14.274;2022-07-09T01:38:36;19.40;50.70
34927;DHT22;21132;48.308;14.274;2022-07-09T01:41:02;19.40;50.80
34927;DHT22;21132;48.308;14.274;2022-07-09T01:43:29;19.30;50.80
34927;DHT22;21132;48.308;14.274;2022-07-09T01:45:56;19.30;51.00
34927;DHT22;21132;48.308;14.274;2022-07-09T01:48:22;19.30;51.10
34927;DHT22;21132;48.308;14.274;2022-07-09T01:50:49;19.30;51.10
34927;DHT22;21132;48.308;14.274;2022-07-09T01:53:14;19.20;51.00
34927;DHT22;21132;48.308;14.274;2022-07-09T01:55:40;19.30;51.10
34927;DHT22;21132;48.308;14.274;2022-07-09T01:58:06;19.20;51.50
34927;DHT22;21132;48.308;14.274;2022-07-09T02:00:32;19.20;51.50
34927;DHT22;21132;48.308;14.274;2022-07-09T02:02:57;19.20;51.90
34927;DHT22;21132;48.308;14.274;2022-07-09T02:05:23;19.30;51.80
34927;DHT22;21132;48.308;14.274;2022-07-09T02:07:49;19.20;51.70
34927;DHT22;21132;48.308;14.274;2022-07-09T02:10:15;19.20;51.90
34927;DHT22;21132;48.308;14.274;2022-07-09T02:12:41;19.20;51.80
34927;DHT22;21132;48.308;14.274;2022-07-09T02:15:08;19.20;51.90
34927;DHT22;21132;48.308;14.274;2022-07-09T02:17:36;19.30;52.10
34927;DHT22;21132;48.308;14.274;2022-07-09T02:20:03;19.20;52.10
34927;DHT22;21132;48.308;14.274;2022-07-09T02:22:29;19.20;52.10
34927;DHT22;21132;48.308;14.274;2022-07-09T02:24:55;19.20;52.00
34927;DHT22;21132;48.308;14.274;2022-07-09T02:27:21;19.20;52.00
34927;DHT22;21132;48.308;14.274;2022-07-09T02:29:47;19.20;51.80
34927;DHT22;21132;48.308;14.274;2022-07-09T02:32:12;19.30;51.90
34927;DHT22;21132;48.308;14.274;2022-07-09T02:34:38;19.30;52.00
34927;DHT22;21132;48.308;14.274;2022-07-09T02:37:05;19.30;52.00
34927;DHT22;21132;48.308;14.274;2022-07-09T02:39:31;19.20;51.90
34927;DHT22;21132;48.308;14.274;2022-07-09T02:41:57;19.20;51.90
34927;DHT22;21132;48.308;14.274;2022-07-09T02:44:23;19.20;52.10
34927;DHT22;21132;48.308;14.274;2022-07-09T02:46:49;19.20;51.80
34927;DHT22;21132;48.308;14.274;2022-07-09T02:49:14;19.20;51.90
34927;DHT22;21132;48.308;14.274;2022-07-09T02:51:40;19.20;51.90
34927;DHT22;21132;48.308;14.274;2022-07-09T02:54:06;19.20;52.10
34927;DHT22;21132;48.308;14.274;2022-07-09T02:56:32;19.20;52.20
34927;DHT22;21132;48.308;14.274;2022-07-09T02:58:58;19.20;52.30
34927;DHT22;21132;48.308;14.274;2022-07-09T03:01:24;19.20;52.30
34927;DHT22;21132;48.308;14.274;2022-07-09T03:03:50;19.20;52.20
34927;DHT22;21132;48.308;14.274;2022-07-09T03:06:16;19.20;52.20
34927;DHT22;21132;48.308;14.274;2022-07-09T03:08:42;19.20;52.00
34927;DHT22;21132;48.308;14.274;2022-07-09T03:11:07;19.20;51.90
34927;DHT22;21132;48.308;14.274;2022-07-09T03:13:35;19.30;51.90
34927;DHT22;21132;48.308;14.274;2022-07-09T03:16:01;19.30;52.20
34927;DHT22;21132;48.308;14.274;2022-07-09T03:18:27;19.20;52.40
34927;DHT22;21132;48.308;14.274;2022-07-09T03:20:52;19.30;53.00
34927;DHT22;21132;48.308;14.274;2022-07-09T03:23:18;19.20;52.90
34927;DHT22;21132;48.308;14.274;2022-07-09T03:25:44;19.20;53.00
34927;DHT22;21132;48.308;14.274;2022-07-09T03:28:10;19.20;52.90
34927;DHT22;21132;48.308;14.274;2022-07-09T03:30:36;19.20;52.80
34927;DHT22;21132;48.308;14.274;2022-07-09T03:33:02;19.20;52.90
34927;DHT22;21132;48.308;14.274;2022-07-09T03:35:28;19.20;53.10
34927;DHT22;21132;48.308;14.274;2022-07-09T03:37:54;19.20;54.00
34927;DHT22;21132;48.308;14.274;2022-07-09T03:40:20;19.20;53.50
34927;DHT22;21132;48.308;14.274;2022-07-09T03:42:46;19.10;53.50
34927;DHT22;21132;48.308;14.274;2022-07-09T03:45:12;19.20;53.60
34927;DHT22;21132;48.308;14.274;2022-07-09T03:47:38;19.10;53.60
34927;DHT22;21132;48.308;14.274;2022-07-09T03:50:04;19.10;53.60
34927;DHT22;21132;48.308;14.274;2022-07-09T03:52:30;19.10;53.60
34927;DHT22;21132;48.308;14.274;2022-07-09T03:54:56;19.20;53.80
34927;DHT22;21132;48.308;14.274;2022-07-09T03:57:22;19.20;53.90
34927;DHT22;21132;48.308;14.274;2022-07-09T03:59:48;19.20;53.80
34927;DHT22;21132;48.308;14.274;2022-07-09T04:02:13;19.20;53.90
34927;DHT22;21132;48.308;14.274;2022-07-09T04:04:40;19.20;53.90
34927;DHT22;21132;48.308;14.274;2022-07-09T04:07:06;19.30;53.90
34927;DHT22;21132;48.308;14.274;2022-07-09T04:09:33;19.30;53.80
34927;DHT22;21132;48.308;14.274;2022-07-09T04:11:59;19.30;53.70
34927;DHT22;21132;48.308;14.274;2022-07-09T04:14:24;19.40;53.60
34927;DHT22;21132;48.308;14.274;2022-07-09T04:16:50;19.40;53.30
34927;DHT22;21132;48.308;14.274;2022-07-09T04:19:16;19.50;53.20
34927;DHT22;21132;48.308;14.274;2022-07-09T04:21:42;19.50;53.10
34927;DHT22;21132;48.308;14.274;2022-07-09T04:24:07;19.60;53.00
34927;DHT22;21132;48.308;14.274;2022-07-09T04:26:33;19.60;52.80
34927;DHT22;21132;48.308;14.274;2022-07-09T04:28:59;19.70;53.40
34927;DHT22;21132;48.308;14.274;2022-07-09T04:31:25;19.70;52.70
34927;DHT22;21132;48.308;14.274;2022-07-09T04:33:51;19.80;52.50
34927;DHT22;21132;48.308;14.274;2022-07-09T04:36:16;19.80;52.50
34927;DHT22;21132;48.308;14.274;2022-07-09T04:38:42;19.80;52.50
34927;DHT22;21132;48.308;14.274;2022-07-09T04:41:08;19.80;52.40
34927;DHT22;21132;48.308;14.274;2022-07-09T04:43:34;19.90;52.50
34927;DHT22;21132;48.308;14.274;2022-07-09T04:46:00;19.80;52.60
34927;DHT22;21132;48.308;14.274;2022-07-09T04:48:26;19.80;52.70
34927;DHT22;21132;48.308;14.274;2022-07-09T04:50:52;19.80;52.90
34927;DHT22;21132;48.308;14.274;2022-07-09T04:53:17;19.80;53.60
34927;DHT22;21132;48.308;14.274;2022-07-09T04:55:43;19.80;53.00
34927;DHT22;21132;48.308;14.274;2022-07-09T04:58:09;19.80;53.20
34927;DHT22;21132;48.308;14.274;2022-07-09T05:00:35;19.80;53.20
34927;DHT22;21132;48.308;14.274;2022-07-09T05:03:02;19.80;53.20
34927;DHT22;21132;48.308;14.274;2022-07-09T05:05:28;19.80;53.00
34927;DHT22;21132;48.308;14.274;2022-07-09T05:07:53;19.80;53.00
34927;DHT22;21132;48.308;14.274;2022-07-09T05:10:19;19.90;53.00
34927;DHT22;21132;48.308;14.274;2022-07-09T05:12:46;19.90;52.90
34927;DHT22;21132;48.308;14.274;2022-07-09T05:15:13;19.90;52.70
34927;DHT22;21132;48.308;14.274;2022-07-09T05:17:40;20.00;52.70
34927;DHT22;21132;48.308;14.274;2022-07-09T05:20:07;20.00;52.60
34927;DHT22;21132;48.308;14.274;2022-07-09T05:22:35;20.10;52.50
34927;DHT22;21132;48.308;14.274;2022-07-09T05:25:02;20.20;52.40
34927;DHT22;21132;48.308;14.274;2022-07-09T05:27:28;20.30;52.40
34927;DHT22;21132;48.308;14.274;2022-07-09T05:29:54;20.30;52.10
34927;DHT22;21132;48.308;14.274;2022-07-09T05:32:20;20.40;52.20
34927;DHT22;21132;48.308;14.274;2022-07-09T05:34:46;20.50;52.20
34927;DHT22;21132;48.308;14.274;2022-07-09T05:37:12;20.50;52.20
34927;DHT22;21132;48.308;14.274;2022-07-09T05:39:38;20.60;52.10
34927;DHT22;21132;48.308;14.274;2022-07-09T05:42:04;20.70;52.10
34927;DHT22;21132;48.308;14.274;2022-07-09T05:44:30;20.80;52.00
34927;DHT22;21132;48.308;14.274;2022-07-09T05:46:56;20.80;51.90
34927;DHT22;21132;48.308;14.274;2022-07-09T05:49:22;20.90;51.70
34927;DHT22;21132;48.308;14.274;2022-07-09T05:51:48;21.00;51.60
34927;DHT22;21132;48.308;14.274;2022-07-09T05:54:14;21.10;51.40
34927;DHT22;21132;48.308;14.274;2022-07-09T05:56:39;21.10;51.20
34927;DHT22;21132;48.308;14.274;2022-07-09T05:59:07;21.20;50.90
34927;DHT22;21132;48.308;14.274;2022-07-09T06:01:32;21.30;50.50
34927;DHT22;21132;48.308;14.274;2022-07-09T06:04:04;21.40;50.40
34927;DHT22;21132;48.308;14.274;2022-07-09T06:06:30;21.40;50.20
34927;DHT22;21132;48.308;14.274;2022-07-09T06:08:56;21.60;50.00
34927;DHT22;21132;48.308;14.274;2022-07-09T06:11:22;21.60;49.60
34927;DHT22;21132;48.308;14.274;2022-07-09T06:13:48;21.70;49.50
34927;DHT22;21132;48.308;14.274;2022-07-09T06:16:14;21.80;49.30
34927;DHT22;21132;48.308;14.274;2022-07-09T06:18:40;21.90;49.00
34927;DHT22;21132;48.308;14.274;2022-07-09T06:21:06;22.00;48.80
34927;DHT22;21132;48.308;14.274;2022-07-09T06:23:32;22.10;48.60
34927;DHT22;21132;48.308;14.274;2022-07-09T06:25:57;22.10;48.40
34927;DHT22;21132;48.308;14.274;2022-07-09T06:28:23;22.20;48.40
34927;DHT22;21132;48.308;14.274;2022-07-09T06:30:49;22.30;48.30
34927;DHT22;21132;48.308;14.274;2022-07-09T06:33:15;22.40;48.00
34927;DHT22;21132;48.308;14.274;2022-07-09T06:35:40;22.50;48.00
34927;DHT22;21132;48.308;14.274;2022-07-09T06:38:06;22.50;47.80
34927;DHT22;21132;48.308;14.274;2022-07-09T06:40:32;22.60;47.50
34927;DHT22;21132;48.308;14.274;2022-07-09T06:42:59;22.70;47.30
34927;DHT22;21132;48.308;14.274;2022-07-09T06:45:25;22.70;47.10
34927;DHT22;21132;48.308;14.274;2022-07-09T06:47:51;22.70;46.60
34927;DHT22;21132;48.308;14.274;2022-07-09T06:50:18;22.70;46.30
34927;DHT22;21132;48.308;14.274;2022-07-09T06:52:44;22.70;46.20
34927;DHT22;21132;48.308;14.274;2022-07-09T06:55:10;22.80;46.60
34927;DHT22;21132;48.308;14.274;2022-07-09T06:57:36;22.70;46.00
34927;DHT22;21132;48.308;14.274;2022-07-09T07:00:06;22.70;45.90
34927;DHT22;21132;48.308;14.274;2022-07-09T07:02:32;22.80;46.30
34927;DHT22;21132;48.308;14.274;2022-07-09T07:04:58;22.70;46.10
34927;DHT22;21132;48.308;14.274;2022-07-09T07:07:24;22.80;46.60
34927;DHT22;21132;48.308;14.274;2022-07-09T07:09:50;22.90;46.30
34927;DHT22;21132;48.308;14.274;2022-07-09T07:12:15;23.10;46.30
34927;DHT22;21132;48.308;14.274;2022-07-09T07:14:41;23.20;46.30
34927;DHT22;21132;48.308;14.274;2022-07-09T07:17:08;23.30;45.90
34927;DHT22;21132;48.308;14.274;2022-07-09T07:19:34;23.40;45.30
34927;DHT22;21132;48.308;14.274;2022-07-09T07:22:00;23.50;45.30
34927;DHT22;21132;48.308;14.274;2022-07-09T07:24:25;23.50;45.00
34927;DHT22;21132;48.308;14.274;2022-07-09T07:26:51;23.60;45.10
34927;DHT22;21132;48.308;14.274;2022-07-09T07:29:17;23.70;44.90
34927;DHT22;21132;48.308;14.274;2022-07-09T07:31:43;23.70;44.10
34927;DHT22;21132;48.308;14.274;2022-07-09T07:34:09;23.80;44.50
34927;DHT22;21132;48.308;14.274;2022-07-09T07:36:34;23.90;44.20
34927;DHT22;21132;48.308;14.274;2022-07-09T07:39:00;24.00;44.10
34927;DHT22;21132;48.308;14.274;2022-07-09T07:41:26;24.10;43.90
34927;DHT22;21132;48.308;14.274;2022-07-09T07:43:52;24.20;43.50
34927;DHT22;21132;48.308;14.274;2022-07-09T07:46:18;24.20;42.80
34927;DHT22;21132;48.308;14.274;2022-07-09T07:48:44;24.30;43.00
34927;DHT22;21132;48.308;14.274;2022-07-09T07:51:10;24.40;42.80
34927;DHT22;21132;48.308;14.274;2022-07-09T07:53:36;24.50;42.30
34927;DHT22;21132;48.308;14.274;2022-07-09T07:56:03;24.60;42.00
34927;DHT22;21132;48.308;14.274;2022-07-09T07:58:29;24.80;42.20
34927;DHT22;21132;48.308;14.274;2022-07-09T08:00:54;25.00;41.50
34927;DHT22;21132;48.308;14.274;2022-07-09T08:03:20;25.20;41.20
34927;DHT22;21132;48.308;14.274;2022-07-09T08:05:46;25.30;40.70
34927;DHT22;21132;48.308;14.274;2022-07-09T08:08:12;25.40;40.80
34927;DHT22;21132;48.308;14.274;2022-07-09T08:10:38;25.50;40.00
34927;DHT22;21132;48.308;14.274;2022-07-09T08:13:04;25.70;40.00
34927;DHT22;21132;48.308;14.274;2022-07-09T08:15:30;25.80;40.10
34927;DHT22;21132;48.308;14.274;2022-07-09T08:17:56;25.90;39.00
34927;DHT22;21132;48.308;14.274;2022-07-09T08:20:22;26.00;39.30
34927;DHT22;21132;48.308;14.274;2022-07-09T08:22:48;26.20;39.20
34927;DHT22;21132;48.308;14.274;2022-07-09T08:25:13;26.30;38.70
34927;DHT22;21132;48.308;14.274;2022-07-09T08:27:40;26.40;38.20
34927;DHT22;21132;48.308;14.274;2022-07-09T08:30:06;26.50;38.10
34927;DHT22;21132;48.308;14.274;2022-07-09T08:32:32;26.60;38.50
34927;DHT22;21132;48.308;14.274;2022-07-09T08:34:58;26.70;37.90
34927;DHT22;21132;48.308;14.274;2022-07-09T08:37:23;26.80;38.10
34927;DHT22;21132;48.308;14.274;2022-07-09T08:39:49;26.90;38.30
34927;DHT22;21132;48.308;14.274;2022-07-09T08:42:15;27.00;38.00
34927;DHT22;21132;48.308;14.274;2022-07-09T08:44:45;27.20;37.90
34927;DHT22;21132;48.308;14.274;2022-07-09T08:47:12;27.30;37.00
34927;DHT22;21132;48.308;14.274;2022-07-09T08:49:39;27.30;37.20
34927;DHT22;21132;48.308;14.274;2022-07-09T08:52:06;27.40;37.50
34927;DHT22;21132;48.308;14.274;2022-07-09T08:54:35;27.50;37.10
34927;DHT22;21132;48.308;14.274;2022-07-09T08:57:05;27.70;37.40
34927;DHT22;21132;48.308;14.274;2022-07-09T08:59:32;27.80;36.50
34927;DHT22;21132;48.308;14.274;2022-07-09T09:02:01;27.90;36.30
34927;DHT22;21132;48.308;14.274;2022-07-09T09:04:28;27.90;35.90
34927;DHT22;21132;48.308;14.274;2022-07-09T09:06:54;27.90;35.60
34927;DHT22;21132;48.308;14.274;2022-07-09T09:09:20;28.00;35.90
34927;DHT22;21132;48.308;14.274;2022-07-09T09:11:49;28.00;35.90
34927;DHT22;21132;48.308;14.274;2022-07-09T09:14:24;28.10;36.00
34927;DHT22;21132;48.308;14.274;2022-07-09T09:16:51;28.10;35.60
34927;DHT22;21132;48.308;14.274;2022-07-09T09:19:17;28.20;35.80
34927;DHT22;21132;48.308;14.274;2022-07-09T09:21:42;28.30;35.80
34927;DHT22;21132;48.308;14.274;2022-07-09T09:24:08;28.40;35.20
34927;DHT22;21132;48.308;14.274;2022-07-09T09:26:34;28.50;35.10
34927;DHT22;21132;48.308;14.274;2022-07-09T09:29:02;28.50;34.50
34927;DHT22;21132;48.308;14.274;2022-07-09T09:31:33;28.40;34.80
34927;DHT22;21132;48.308;14.274;2022-07-09T09:34:15;28.30;34.40
34927;DHT22;21132;48.308;14.274;2022-07-09T09:36:43;28.10;34.70
34927;DHT22;21132;48.308;14.274;2022-07-09T09:39:20;28.00;34.90
34927;DHT22;21132;48.308;14.274;2022-07-09T09:42:07;27.70;34.90
34927;DHT22;21132;48.308;14.274;2022-07-09T09:44:39;27.40;35.50
34927;DHT22;21132;48.308;14.274;2022-07-09T09:47:08;27.20;35.70
34927;DHT22;21132;48.308;14.274;2022-07-09T09:49:37;27.00;36.50
34927;DHT22;21132;48.308;14.274;2022-07-09T09:52:10;26.70;36.20
34927;DHT22;21132;48.308;14.274;2022-07-09T09:54:38;26.60;37.00
34927;DHT22;21132;48.308;14.274;2022-07-09T09:57:08;26.50;36.90
34927;DHT22;21132;48.308;14.274;2022-07-09T09:59:37;26.40;37.60
34927;DHT22;21132;48.308;14.274;2022-07-09T10:02:05;26.40;37.80
34927;DHT22;21132;48.308;14.274;2022-07-09T10:04:38;26.50;37.90
34927;DHT22;21132;48.308;14.274;2022-07-09T10:07:04;26.60;37.60
34927;DHT22;21132;48.308;14.274;2022-07-09T10:09:31;26.70;37.50
34927;DHT22;21132;48.308;14.274;2022-07-09T10:11:56;26.80;37.30
34927;DHT22;21132;48.308;14.274;2022-07-09T10:16:54;27.00;36.90
34927;DHT22;21132;48.308;14.274;2022-07-09T10:19:30;27.20;37.50
34927;DHT22;21132;48.308;14.274;2022-07-09T10:21:59;27.40;36.70
34927;DHT22;21132;48.308;14.274;2022-07-09T10:24:32;27.60;35.80
34927;DHT22;21132;48.308;14.274;2022-07-09T10:27:09;27.70;35.50
34927;DHT22;21132;48.308;14.274;2022-07-09T10:29:49;27.90;35.00
34927;DHT22;21132;48.308;14.274;2022-07-09T10:32:31;27.90;34.40
34927;DHT22;21132;48.308;14.274;2022-07-09T10:34:59;27.90;35.00
34927;DHT22;21132;48.308;14.274;2022-07-09T10:37:44;28.00;34.40
34927;DHT22;21132;48.308;14.274;2022-07-09T10:40:17;27.80;34.80
34927;DHT22;21132;48.308;14.274;2022-07-09T10:42:44;27.70;34.80
34927;DHT22;21132;48.308;14.274;2022-07-09T10:45:45;27.70;35.50
34927;DHT22;21132;48.308;14.274;2022-07-09T10:48:13;27.60;35.20
34927;DHT22;21132;48.308;14.274;2022-07-09T10:50:44;27.50;35.40
34927;DHT22;21132;48.308;14.274;2022-07-09T10:53:12;27.40;35.60
34927;DHT22;21132;48.308;14.274;2022-07-09T10:55:42;27.40;35.70
34927;DHT22;21132;48.308;14.274;2022-07-09T10:58:19;27.30;36.00
34927;DHT22;21132;48.308;14.274;2022-07-09T11:00:57;27.30;35.60
34927;DHT22;21132;48.308;14.274;2022-07-09T11:03:27;27.20;35.80
34927;DHT22;21132;48.308;14.274;2022-07-09T11:05:53;27.10;35.50
34927;DHT22;21132;48.308;14.274;2022-07-09T11:08:19;27.10;35.70
34927;DHT22;21132;48.308;14.274;2022-07-09T11:10:45;27.00;35.30
34927;DHT22;21132;48.308;14.274;2022-07-09T11:13:11;27.00;35.70
34927;DHT22;21132;48.308;14.274;2022-07-09T11:15:38;26.90;36.30
34927;DHT22;21132;48.308;14.274;2022-07-09T11:18:12;26.80;36.40
34927;DHT22;21132;48.308;14.274;2022-07-09T11:20:45;26.80;36.70
34927;DHT22;21132;48.308;14.274;2022-07-09T11:23:15;26.80;36.20
34927;DHT22;21132;48.308;14.274;2022-07-09T11:25:45;26.90;35.70
34927;DHT22;21132;48.308;14.274;2022-07-09T11:28:22;27.00;35.40
34927;DHT22;21132;48.308;14.274;2022-07-09T11:30:59;27.10;35.90
34927;DHT22;21132;48.308;14.274;2022-07-09T11:33:25;27.20;36.10
34927;DHT22;21132;48.308;14.274;2022-07-09T11:35:51;27.40;35.60
34927;DHT22;21132;48.308;14.274;2022-07-09T11:38:17;27.50;35.00
34927;DHT22;21132;48.308;14.274;2022-07-09T11:40:44;27.60;34.80
34927;DHT22;21132;48.308;14.274;2022-07-09T11:43:16;27.80;35.20
34927;DHT22;21132;48.308;14.274;2022-07-09T11:45:52;27.90;34.90
34927;DHT22;21132;48.308;14.274;2022-07-09T11:48:18;28.20;34.80
34927;DHT22;21132;48.308;14.274;2022-07-09T11:50:46;28.40;33.60
34927;DHT22;21132;48.308;14.274;2022-07-09T11:53:24;28.50;33.40
34927;DHT22;21132;48.308;14.274;2022-07-09T11:56:01;28.70;33.40
34927;DHT22;21132;48.308;14.274;2022-07-09T11:58:27;28.80;32.90
34927;DHT22;21132;48.308;14.274;2022-07-09T12:00:54;28.90;32.90
34927;DHT22;21132;48.308;14.274;2022-07-09T12:03:24;29.10;33.10
34927;DHT22;21132;48.308;14.274;2022-07-09T12:05:50;29.30;32.80
34927;DHT22;21132;48.308;14.274;2022-07-09T12:08:26;29.40;32.60
34927;DHT22;21132;48.308;14.274;2022-07-09T12:10:53;29.60;32.80
34927;DHT22;21132;48.308;14.274;2022-07-09T12:13:19;29.90;32.30
34927;DHT22;21132;48.308;14.274;2022-07-09T12:15:44;30.10;32.40
34927;DHT22;21132;48.308;14.274;2022-07-09T12:18:10;30.20;32.00
34927;DHT22;21132;48.308;14.274;2022-07-09T12:20:36;30.40;31.50
34927;DHT22;21132;48.308;14.274;2022-07-09T12:23:02;30.50;30.90
34927;DHT22;21132;48.308;14.274;2022-07-09T12:25:28;30.60;30.40
34927;DHT22;21132;48.308;14.274;2022-07-09T12:27:54;30.60;30.30
34927;DHT22;21132;48.308;14.274;2022-07-09T12:30:20;30.60;30.20
34927;DHT22;21132;48.308;14.274;2022-07-09T12:32:46;30.60;29.60
34927;DHT22;21132;48.308;14.274;2022-07-09T12:35:12;30.60;29.60
34927;DHT22;21132;48.308;14.274;2022-07-09T12:37:39;30.60;29.80
34927;DHT22;21132;48.308;14.274;2022-07-09T12:40:06;30.50;29.20
34927;DHT22;21132;48.308;14.274;2022-07-09T12:42:33;30.30;28.50
34927;DHT22;21132;48.308;14.274;2022-07-09T12:44:59;30.00;29.30
34927;DHT22;21132;48.308;14.274;2022-07-09T12:47:25;29.90;29.70
34927;DHT22;21132;48.308;14.274;2022-07-09T12:49:51;29.70;30.00
34927;DHT22;21132;48.308;14.274;2022-07-09T12:52:16;29.50;30.20
34927;DHT22;21132;48.308;14.274;2022-07-09T12:54:42;29.30;30.80
34927;DHT22;21132;48.308;14.274;2022-07-09T12:57:09;29.20;31.30
34927;DHT22;21132;48.308;14.274;2022-07-09T12:59:35;29.00;31.60
34927;DHT22;21132;48.308;14.274;2022-07-09T13:02:01;28.90;32.00
34927;DHT22;21132;48.308;14.274;2022-07-09T13:04:27;28.80;32.20
34927;DHT22;21132;48.308;14.274;2022-07-09T13:06:53;28.80;32.20
34927;DHT22;21132;48.308;14.274;2022-07-09T13:09:19;28.80;31.80
34927;DHT22;21132;48.308;14.274;2022-07-09T13:11:45;28.70;31.60
34927;DHT22;21132;48.308;14.274;2022-07-09T13:14:11;28.60;31.00
34927;DHT22;21132;48.308;14.274;2022-07-09T13:16:37;28.50;32.00
34927;DHT22;21132;48.308;14.274;2022-07-09T13:19:03;28.40;32.70
34927;DHT22;21132;48.308;14.274;2022-07-09T13:21:29;28.30;32.90
34927;DHT22;21132;48.308;14.274;2022-07-09T13:23:56;28.20;32.50
34927;DHT22;21132;48.308;14.274;2022-07-09T13:26:22;28.10;32.80
34927;DHT22;21132;48.308;14.274;2022-07-09T13:28:48;28.00;33.40
34927;DHT22;21132;48.308;14.274;2022-07-09T13:31:14;28.00;33.30
34927;DHT22;21132;48.308;14.274;2022-07-09T13:33:41;28.00;33.50
34927;DHT22;21132;48.308;14.274;2022-07-09T13:36:07;28.30;33.60
34927;DHT22;21132;48.308;14.274;2022-07-09T13:38:34;28.50;33.80
34927;DHT22;21132;48.308;14.274;2022-07-09T13:41:00;29.00;33.80
34927;DHT22;21132;48.308;14.274;2022-07-09T13:43:26;29.40;31.90
34927;DHT22;21132;48.308;14.274;2022-07-09T13:45:56;29.90;31.20
34927;DHT22;21132;48.308;14.274;2022-07-09T13:48:22;30.30;31.10
34927;DHT22;21132;48.308;14.274;2022-07-09T13:50:48;30.80;30.50
34927;DHT22;21132;48.308;14.274;2022-07-09T13:53:14;31.30;29.50
34927;DHT22;21132;48.308;14.274;2022-07-09T13:55:40;31.70;28.90
34927;DHT22;21132;48.308;14.274;2022-07-09T13:58:06;32.00;29.10
34927;DHT22;21132;48.308;14.274;2022-07-09T14:00:32;32.10;28.50
34927;DHT22;21132;48.308;14.274;2022-07-09T14:02:58;32.10;28.10
34927;DHT22;21132;48.308;14.274;2022-07-09T14:05:24;32.00;27.80
34927;DHT22;21132;48.308;14.274;2022-07-09T14:07:50;31.90;28.00
34927;DHT22;21132;48.308;14.274;2022-07-09T14:10:16;31.70;28.30
34927;DHT22;21132;48.308;14.274;2022-07-09T14:12:41;31.60;28.80
34927;DHT22;21132;48.308;14.274;2022-07-09T14:15:08;31.40;29.00
34927;DHT22;21132;48.308;14.274;2022-07-09T14:17:34;31.30;29.30
34927;DHT22;21132;48.308;14.274;2022-07-09T14:20:00;31.30;29.60
34927;DHT22;21132;48.308;14.274;2022-07-09T14:22:26;31.20;29.70
34927;DHT22;21132;48.308;14.274;2022-07-09T14:24:52;31.20;29.30
34927;DHT22;21132;48.308;14.274;2022-07-09T14:27:18;31.10;29.40
34927;DHT22;21132;48.308;14.274;2022-07-09T14:29:45;31.10;29.60
34927;DHT22;21132;48.308;14.274;2022-07-09T14:32:11;31.20;29.80
34927;DHT22;21132;48.308;14.274;2022-07-09T14:34:36;31.30;29.20
34927;DHT22;21132;48.308;14.274;2022-07-09T14:37:03;31.40;29.60
34927;DHT22;21132;48.308;14.274;2022-07-09T14:39:29;31.60;29.10
34927;DHT22;21132;48.308;14.274;2022-07-09T14:41:55;31.70;29.20
34927;DHT22;21132;48.308;14.274;2022-07-09T14:44:21;31.90;28.90
34927;DHT22;21132;48.308;14.274;2022-07-09T14:46:46;32.00;27.60
34927;DHT22;21132;48.308;14.274;2022-07-09T14:49:12;32.00;28.00
34927;DHT22;21132;48.308;14.274;2022-07-09T14:51:39;32.10;28.00
34927;DHT22;21132;48.308;14.274;2022-07-09T14:54:05;32.10;27.70
34927;DHT22;21132;48.308;14.274;2022-07-09T14:56:31;32.40;27.90
34927;DHT22;21132;48.308;14.274;2022-07-09T14:58:57;32.60;27.70
34927;DHT22;21132;48.308;14.274;2022-07-09T15:01:23;32.70;27.40
34927;DHT22;21132;48.308;14.274;2022-07-09T15:03:49;32.80;27.40
34927;DHT22;21132;48.308;14.274;2022-07-09T15:06:15;32.80;27.60
34927;DHT22;21132;48.308;14.274;2022-07-09T15:08:42;32.80;28.10
34927;DHT22;21132;48.308;14.274;2022-07-09T15:11:10;32.70;27.40
34927;DHT22;21132;48.308;14.274;2022-07-09T15:13:35;32.50;27.30
34927;DHT22;21132;48.308;14.274;2022-07-09T15:16:01;32.30;27.70